< Cyclone 201416 2015 Season Cyclone 201513 >
Cyclone 201504 (Kate)
General InformationTrack Information on Google MapsDetailed Wind InformationList of All Images || ResourceGoogle EarthGE AnimationAtom FeedGeoJSON
Detalied Best Track (Time Zone = UTC)
Year Month Day Hour Lat. Long. Pressure (hPa) Wind (kt) Class Image Chart
2014 12 21 15 -7.4 100.5 1007 15 2 Image --
2014 12 21 18 -7.6 100.6 1007 15 2 Image --
2014 12 22 00 -8.0 100.8 1007 20 2 Image --
2014 12 22 06 -8.5 100.7 1007 20 2 Image --
2014 12 22 12 -8.9 100.7 1007 20 2 Image --
2014 12 22 18 -9.1 100.6 1004 25 2 Image --
2014 12 23 00 -9.3 100.5 1004 25 2 Image --
2014 12 23 06 -9.4 100.6 1004 25 2 Image --
2014 12 23 12 -9.4 100.8 1002 30 2 Image --
2014 12 23 18 -9.8 100.8 1002 30 2 Image --
2014 12 24 00 -10.6 100.0 1004 30 2 Image --
2014 12 24 06 -10.6 99.3 1001 30 2 Image --
2014 12 24 12 -10.7 98.8 998 35 3 Image --
2014 12 24 18 -10.8 97.8 996 40 3 Image --
2014 12 25 00 -11.0 97.5 992 40 3 Image --
2014 12 25 06 -11.9 96.8 988 45 3 Image --
2014 12 25 12 -12.1 96.0 985 50 4 Image --
2014 12 25 18 -12.2 95.5 983 55 4 Image --
2014 12 25 19 -12.2 95.3 983 55 0 Image --
2014 12 26 00 -12.1 95.0 983 55 4 Image --
2014 12 26 06 -12.2 94.4 980 60 4 Image --
2014 12 26 12 -12.3 94.2 964 80 5 Image --
2014 12 26 18 -12.4 94.0 955 90 5 Image --
2014 12 27 00 -12.6 93.8 955 90 5 Image --
2014 12 27 06 -12.8 93.5 955 90 5 Image --
2014 12 27 12 -12.9 93.2 955 90 5 Image --
2014 12 27 18 -13.0 93.0 960 85 5 Image --
2014 12 28 00 -13.2 92.8 965 80 5 Image --
2014 12 28 06 -13.4 92.7 973 70 5 Image --
2014 12 28 12 -13.5 92.6 976 65 5 Image --
2014 12 28 18 -13.8 92.3 982 60 4 Image --
2014 12 29 00 -14.2 92.0 982 60 4 Image --
2014 12 29 06 -14.5 91.7 980 60 4 Image --
2014 12 29 12 -15.0 91.5 976 65 5 Image --
2014 12 29 18 -15.6 90.9 973 70 5 Image --
2014 12 30 00 -16.4 90.3 967 80 5 Image --
< Cyclone 201416 2015 Season Cyclone 201513 >

Help